Terminal Aerodrome Forecast
Issued by NWS

Home | Current Version | Previous Version | Text Only | Print | Product List | Glossary On
Versions: 1 2 3 4 5 6 7 8 9 10 11 12 13 14
000
FTUS45 KGJT 251214 AAA
TAFEGE
TAF AMD
KEGE 251214Z 2512/2612 VRB03KT P6SM -RA VCSH BKN070 OVC090
     FM251800 25004KT P6SM VCTS BKN080CB
     FM260000 25009KT P6SM VCTS BKN090CB
     FM260300 23005KT P6SM VCSH BKN070
     FM260600 VRB03KT P6SM BKN060
      AMD LTD TO CLD VIS AND WIND TIL 251300=

USA.gov is the U.S. government's official web portal to all federal, state and local government web resources and services.